Time;durP1;ratioP1;P1;durP2;ratioP2;P2;SDS_P1;SDS_P2;PMS_P1;PMS_P2;Temp;Humidity;BMP_temperature;BMP_pressure;BME280_temperature;BME280_humidity;BME280_pressure;Samples;Min_cycle;Max_cycle;Signal;HPM_P1;HPM_P2
2023/10/14 00:00:27;;;;;;;2.75;1.92;;;;;;;;;;5883995;28;20049;-78
2023/10/14 00:03:27;;;;;;;3.33;2.28;;;;;;;;;;5899246;28;20044;-78
2023/10/14 00:06:18;;;;;;;4.90;3.75;;;;;;;;;;5883953;28;20045;-78
2023/10/14 00:09:12;;;;;;;8.10;5.15;;;;;;;;;;5884236;28;20455;-77
2023/10/14 00:12:12;;;;;;;6.28;5.28;;;;;;;;;;5887377;28;20045;-78
2023/10/14 00:15:05;;;;;;;4.72;2.78;;;;;;;;;;5891650;28;20058;-78
2023/10/14 00:17:57;;;;;;;9.88;6.68;;;;;;;;;;5880055;28;20128;-77
2023/10/14 00:20:51;;;;;;;12.18;9.70;;;;;;;;;;5887109;28;20075;-77
2023/10/14 00:23:41;;;;;;;27.35;11.13;;;;;;;;;;5882774;28;20586;-78
2023/10/14 00:26:33;;;;;;;14.05;8.07;;;;;;;;;;5887925;28;20377;-78
2023/10/14 00:29:29;;;;;;;3.08;2.78;;;;;;;;;;5898470;28;20152;-77
2023/10/14 00:32:20;;;;;;;6.43;4.10;;;;;;;;;;5882859;28;20073;-77
2023/10/14 00:35:12;;;;;;;8.38;6.82;;;;;;;;;;5882466;28;20041;-78
2023/10/14 00:38:08;;;;;;;21.60;15.02;;;;;;;;;;5884080;28;20068;-77
2023/10/14 00:40:59;;;;;;;16.90;12.07;;;;;;;;;;5887742;28;20410;-77
2023/10/14 00:43:56;;;;;;;12.85;9.30;;;;;;;;;;5899706;28;20041;-78
2023/10/14 00:46:50;;;;;;;13.18;8.95;;;;;;;;;;5888736;28;20159;-78
2023/10/14 00:49:42;;;;;;;10.70;8.20;;;;;;;;;;5893837;28;20046;-77
2023/10/14 00:52:33;;;;;;;10.13;4.45;;;;;;;;;;5883728;28;20103;-77
2023/10/14 00:55:27;;;;;;;22.35;12.88;;;;;;;;;;5887985;28;20427;-77
2023/10/14 00:58:21;;;;;;;21.35;15.52;;;;;;;;;;5883878;28;20478;-78
2023/10/14 01:01:12;;;;;;;14.40;10.40;;;;;;;;;;5894756;28;20080;-78
2023/10/14 01:04:18;;;;;;;9.02;7.82;;;;;;;;;;5904142;28;20070;-77
2023/10/14 01:07:15;;;;;;;3.85;2.95;;;;;;;;;;5903752;28;20353;-77
2023/10/14 01:10:11;;;;;;;5.68;3.58;;;;;;;;;;5883557;28;20049;-78
2023/10/14 01:13:08;;;;;;;8.38;4.18;;;;;;;;;;5901018;28;20045;-77
2023/10/14 01:16:21;;;;;;;2.97;2.35;;;;;;;;;;5887254;28;20101;-78
2023/10/14 01:19:13;;;;;;;7.80;5.53;;;;;;;;;;5891246;28;20044;-78
2023/10/14 01:22:12;;;;;;;11.93;8.77;;;;;;;;;;5871178;28;20421;-77
2023/10/14 01:25:06;;;;;;;13.07;9.00;;;;;;;;;;5904814;28;20052;-76
2023/10/14 01:28:08;;;;;;;10.98;6.35;;;;;;;;;;5899392;28;20045;-78
2023/10/14 01:31:46;;;;;;;8.60;5.57;;;;;;;;;;5895320;28;20048;-78
2023/10/14 01:34:42;;;;;;;13.48;9.90;;;;;;;;;;5882438;28;20084;-78
2023/10/14 01:37:37;;;;;;;12.88;9.57;;;;;;;;;;5886113;28;20399;-77
2023/10/14 01:40:36;;;;;;;11.85;7.55;;;;;;;;;;5880545;28;20064;-76
2023/10/14 01:43:30;;;;;;;5.72;3.78;;;;;;;;;;5889170;28;20040;-78
2023/10/14 01:46:21;;;;;;;4.35;2.17;;;;;;;;;;5900010;28;20056;-77
2023/10/14 01:49:16;;;;;;;10.13;3.33;;;;;;;;;;5898601;28;20045;-79
2023/10/14 01:52:14;;;;;;;3.70;3.35;;;;;;;;;;5882980;28;20522;-77
2023/10/14 01:55:05;;;;;;;7.05;5.45;;;;;;;;;;5893941;28;20056;-78
2023/10/14 01:57:57;;;;;;;10.75;6.75;;;;;;;;;;5898578;28;20395;-78
2023/10/14 02:00:55;;;;;;;12.23;7.97;;;;;;;;;;5883030;28;20052;-78
2023/10/14 02:03:48;;;;;;;7.53;4.32;;;;;;;;;;5886107;28;20056;-78
2023/10/14 02:06:43;;;;;;;3.95;3.53;;;;;;;;;;5905494;28;20422;-78
2023/10/14 02:09:36;;;;;;;2.38;2.03;;;;;;;;;;5881440;28;20044;-77
2023/10/14 02:12:26;;;;;;;1.40;1.30;;;;;;;;;;5887684;28;20400;-78
2023/10/14 02:15:17;;;;;;;4.35;1.70;;;;;;;;;;5898374;28;20061;-77
2023/10/14 02:18:08;;;;;;;1.65;1.55;;;;;;;;;;5897724;28;20056;-77
2023/10/14 02:21:05;;;;;;;4.93;3.88;;;;;;;;;;5884421;28;20048;-78
2023/10/14 02:23:55;;;;;;;7.15;5.13;;;;;;;;;;5884274;28;20424;-77
2023/10/14 02:26:52;;;;;;;6.28;4.00;;;;;;;;;;5883603;28;20472;-77
2023/10/14 02:29:46;;;;;;;8.88;3.58;;;;;;;;;;5886219;28;20737;-77
2023/10/14 02:32:36;;;;;;;4.85;3.70;;;;;;;;;;5882372;28;20055;-77
2023/10/14 02:35:27;;;;;;;4.05;2.63;;;;;;;;;;5899696;28;20515;-77
2023/10/14 02:38:18;;;;;;;2.47;2.08;;;;;;;;;;5885488;28;20045;-78
2023/10/14 02:41:09;;;;;;;3.00;2.22;;;;;;;;;;5895525;28;20048;-77
2023/10/14 02:47:04;;;;;;;2.92;2.10;;;;;;;;;;5882148;28;20123;-78
2023/10/14 02:50:04;;;;;;;3.67;2.33;;;;;;;;;;5880555;28;20049;-78
2023/10/14 02:53:06;;;;;;;6.25;3.40;;;;;;;;;;5893733;28;20156;-77
2023/10/14 02:56:04;;;;;;;7.35;2.95;;;;;;;;;;5890637;28;20124;-78
2023/10/14 02:58:55;;;;;;;5.03;2.00;;;;;;;;;;5885126;28;20041;-78
2023/10/14 03:07:55;;;;;;;12.35;3.47;;;;;;;;;;5875685;28;20519;-78
2023/10/14 03:10:53;;;;;;;3.58;2.40;;;;;;;;;;5900387;28;20059;-78
2023/10/14 03:13:45;;;;;;;13.75;4.88;;;;;;;;;;5891092;28;20047;-77
2023/10/14 03:16:35;;;;;;;5.05;3.67;;;;;;;;;;5908711;28;20044;-77
2023/10/14 03:19:26;;;;;;;6.75;3.95;;;;;;;;;;5908656;28;20186;-76
2023/10/14 03:22:17;;;;;;;3.50;2.22;;;;;;;;;;5891380;28;20060;-77
2023/10/14 03:25:12;;;;;;;2.80;2.53;;;;;;;;;;5907781;28;20044;-77
2023/10/14 03:28:14;;;;;;;2.25;1.80;;;;;;;;;;5908908;28;20048;-75
2023/10/14 03:31:09;;;;;;;3.10;2.75;;;;;;;;;;5891925;28;20044;-78
2023/10/14 03:34:08;;;;;;;6.72;3.58;;;;;;;;;;5909530;28;20051;-77
2023/10/14 03:37:00;;;;;;;9.63;3.28;;;;;;;;;;5908709;28;20049;-78
2023/10/14 03:43:10;;;;;;;4.03;3.00;;;;;;;;;;5894812;28;20181;-76
2023/10/14 03:46:11;;;;;;;6.13;3.08;;;;;;;;;;5890861;28;20129;-78
2023/10/14 03:49:11;;;;;;;22.40;3.25;;;;;;;;;;5890242;28;20457;-77
2023/10/14 03:52:03;;;;;;;5.53;2.15;;;;;;;;;;5890741;28;20134;-77
2023/10/14 03:54:54;;;;;;;3.65;1.77;;;;;;;;;;5908983;28;20044;-77
2023/10/14 03:57:45;;;;;;;2.80;2.33;;;;;;;;;;5906754;28;20044;-77
2023/10/14 04:00:40;;;;;;;4.07;2.15;;;;;;;;;;5908319;28;20131;-78
2023/10/14 04:03:39;;;;;;;4.13;3.03;;;;;;;;;;5890518;28;20056;-77
2023/10/14 04:06:34;;;;;;;10.65;2.03;;;;;;;;;;5908038;28;20404;-77
2023/10/14 04:09:58;;;;;;;7.07;2.33;;;;;;;;;;5908287;28;20052;-78
2023/10/14 04:12:53;;;;;;;3.85;1.95;;;;;;;;;;5906705;28;20059;-77
2023/10/14 04:15:53;;;;;;;8.15;2.47;;;;;;;;;;5907646;28;20403;-77
2023/10/14 04:18:46;;;;;;;3.97;1.92;;;;;;;;;;5907188;28;20036;-78
2023/10/14 04:21:37;;;;;;;3.78;1.92;;;;;;;;;;5890307;28;20083;-79
2023/10/14 04:27:33;;;;;;;6.28;1.58;;;;;;;;;;5889892;28;20048;-77
2023/10/14 04:33:33;;;;;;;3.80;1.80;;;;;;;;;;5890239;28;20468;-77
2023/10/14 04:39:44;;;;;;;2.35;1.60;;;;;;;;;;5899057;28;20406;-77
2023/10/14 04:42:43;;;;;;;4.07;2.70;;;;;;;;;;5906835;28;20103;-77
2023/10/14 04:45:34;;;;;;;1.98;1.55;;;;;;;;;;5906177;28;20117;-77
2023/10/14 04:51:34;;;;;;;36.30;2.13;;;;;;;;;;5907091;28;20044;-76
2023/10/14 04:54:25;;;;;;;2.20;1.38;;;;;;;;;;5889078;28;20530;-78
2023/10/14 04:57:22;;;;;;;1.83;1.63;;;;;;;;;;5905784;28;20052;-78
2023/10/14 05:00:31;;;;;;;4.47;2.05;;;;;;;;;;5889113;28;20055;-78
2023/10/14 05:03:22;;;;;;;;;;;;;;;;;;5889526;28;20052;-77
2023/10/14 05:09:09;;;;;;;4.90;2.35;;;;;;;;;;5906579;28;20044;-78
2023/10/14 05:12:00;;;;;;;2.40;1.40;;;;;;;;;;5907225;28;20566;-77
2023/10/14 05:14:55;;;;;;;2.63;1.70;;;;;;;;;;5888625;28;20063;-77
2023/10/14 05:17:51;;;;;;;6.20;2.42;;;;;;;;;;5906436;28;20053;-78
2023/10/14 05:21:09;;;;;;;2.22;1.52;;;;;;;;;;5906680;28;20064;-79
2023/10/14 05:23:59;;;;;;;3.70;1.52;;;;;;;;;;5891736;28;20399;-77
2023/10/14 05:26:58;;;;;;;1.67;1.40;;;;;;;;;;5906300;28;20044;-76
2023/10/14 05:29:52;;;;;;;2.03;1.83;;;;;;;;;;5906363;28;20482;-77
2023/10/14 05:32:44;;;;;;;1.83;1.63;;;;;;;;;;5888991;28;20051;-78
2023/10/14 05:35:42;;;;;;;2.00;1.45;;;;;;;;;;5906327;28;20051;-77
2023/10/14 05:38:33;;;;;;;3.40;1.67;;;;;;;;;;5888526;28;20044;-77
2023/10/14 05:41:23;;;;;;;1.15;1.05;;;;;;;;;;5906343;28;20059;-77
2023/10/14 05:44:15;;;;;;;4.43;2.25;;;;;;;;;;5906505;28;20048;-79
2023/10/14 05:47:05;;;;;;;10.75;2.42;;;;;;;;;;5888187;28;20085;-77
2023/10/14 05:49:56;;;;;;;5.88;2.30;;;;;;;;;;5887786;28;20082;-77
2023/10/14 05:52:49;;;;;;;40.17;3.75;;;;;;;;;;5906306;28;20132;-78
2023/10/14 05:55:40;;;;;;;6.13;1.65;;;;;;;;;;5905195;28;20040;-77
2023/10/14 05:58:31;;;;;;;4.78;1.95;;;;;;;;;;5886635;28;20044;-78
2023/10/14 06:01:23;;;;;;;5.78;2.35;;;;;;;;;;5888125;28;20055;-79
2023/10/14 06:04:15;;;;;;;3.08;1.88;;;;;;;;;;5895650;28;20088;-78
2023/10/14 06:07:14;;;;;;;2.33;1.98;;;;;;;;;;5904898;28;20716;-78
2023/10/14 06:10:10;;;;;;;1.58;1.23;;;;;;;;;;5906870;28;20044;-78
2023/10/14 06:13:01;;;;;;;3.13;2.35;;;;;;;;;;5905508;28;20488;-78
2023/10/14 06:15:52;;;;;;;4.95;2.53;;;;;;;;;;5906031;28;20051;-77
2023/10/14 06:18:47;;;;;;;5.55;2.42;;;;;;;;;;5905784;28;20399;-78
2023/10/14 06:21:38;;;;;;;4.95;2.85;;;;;;;;;;5905558;28;20119;-78
2023/10/14 06:24:29;;;;;;;3.08;2.78;;;;;;;;;;5906204;28;20431;-78
2023/10/14 06:27:20;;;;;;;4.32;2.53;;;;;;;;;;5875617;28;20044;-76
2023/10/14 06:30:21;;;;;;;5.07;3.00;;;;;;;;;;5892887;28;20063;-78
2023/10/14 06:33:12;;;;;;;11.77;5.60;;;;;;;;;;5911470;28;20500;-77
2023/10/14 06:36:04;;;;;;;5.57;3.33;;;;;;;;;;5890830;28;20053;-77
2023/10/14 06:38:59;;;;;;;7.20;4.20;;;;;;;;;;5911519;28;20052;-77
2023/10/14 06:41:49;;;;;;;4.45;3.10;;;;;;;;;;5909478;28;20045;-77
2023/10/14 06:44:45;;;;;;;6.25;3.97;;;;;;;;;;5900488;28;20044;-78
2023/10/14 06:47:36;;;;;;;3.28;2.35;;;;;;;;;;5885542;28;20151;-77
2023/10/14 06:50:27;;;;;;;7.60;2.55;;;;;;;;;;5886824;28;20052;-78
2023/10/14 06:53:18;;;;;;;8.23;4.05;;;;;;;;;;5887001;28;20049;-78
2023/10/14 06:56:11;;;;;;;12.48;3.88;;;;;;;;;;5885804;28;20069;-78
2023/10/14 06:59:02;;;;;;;8.32;4.03;;;;;;;;;;5890787;28;20064;-78
2023/10/14 07:01:53;;;;;;;16.60;4.40;;;;;;;;;;5885853;28;20060;-77
2023/10/14 07:04:44;;;;;;;31.23;6.25;;;;;;;;;;5902075;28;20048;-77
2023/10/14 07:07:35;;;;;;;17.25;6.35;;;;;;;;;;5901716;28;20495;-78
2023/10/14 07:10:32;;;;;;;14.52;5.57;;;;;;;;;;5886805;28;20067;-77
2023/10/14 07:13:24;;;;;;;11.88;5.68;;;;;;;;;;5893303;28;20173;-77
2023/10/14 07:16:16;;;;;;;3.85;2.92;;;;;;;;;;5898899;28;20448;-78
2023/10/14 07:19:07;;;;;;;3.90;2.83;;;;;;;;;;5905003;28;20064;-78
2023/10/14 07:21:57;;;;;;;25.45;3.42;;;;;;;;;;5899041;28;20064;-78
2023/10/14 07:24:49;;;;;;;6.63;3.78;;;;;;;;;;5884575;28;20094;-78
2023/10/14 07:27:40;;;;;;;17.67;4.15;;;;;;;;;;5886841;28;20048;-78
2023/10/14 07:30:31;;;;;;;7.93;3.55;;;;;;;;;;5901040;28;20052;-78
2023/10/14 07:33:21;;;;;;;3.63;2.53;;;;;;;;;;5883756;28;20057;-78
2023/10/14 07:36:13;;;;;;;6.05;3.10;;;;;;;;;;5884537;28;20045;-77
2023/10/14 07:39:27;;;;;;;8.27;3.05;;;;;;;;;;5900808;28;20044;-77
2023/10/14 07:42:14;;;;;;;7.05;3.55;;;;;;;;;;5885570;28;20064;-76
2023/10/14 07:45:10;;;;;;;7.13;2.85;;;;;;;;;;5868846;28;20045;-78
2023/10/14 07:48:09;;;;;;;22.42;2.90;;;;;;;;;;5887874;28;20067;-78
2023/10/14 07:50:59;;;;;;;5.00;3.22;;;;;;;;;;5886100;28;20090;-78
2023/10/14 07:54:06;;;;;;;4.97;2.83;;;;;;;;;;5883593;28;20049;-78
2023/10/14 07:56:57;;;;;;;5.15;2.60;;;;;;;;;;5883180;28;20060;-77
2023/10/14 07:59:50;;;;;;;4.75;2.58;;;;;;;;;;5885602;28;20063;-78
2023/10/14 08:02:43;;;;;;;5.97;3.10;;;;;;;;;;5886223;28;20072;-76
2023/10/14 08:05:37;;;;;;;3.63;2.50;;;;;;;;;;5888062;28;20110;-78
2023/10/14 08:08:30;;;;;;;5.45;2.83;;;;;;;;;;5884138;28;20041;-76
2023/10/14 08:11:22;;;;;;;9.27;2.78;;;;;;;;;;5885987;28;20181;-77
2023/10/14 08:14:14;;;;;;;2.38;1.83;;;;;;;;;;5904819;28;20044;-78
2023/10/14 08:17:11;;;;;;;9.93;2.45;;;;;;;;;;5888728;28;20048;-78
2023/10/14 08:20:12;;;;;;;6.63;2.22;;;;;;;;;;5886798;28;20607;-77
2023/10/14 08:23:09;;;;;;;3.65;2.45;;;;;;;;;;5881170;28;20049;-78
2023/10/14 08:26:02;;;;;;;8.43;3.20;;;;;;;;;;5869240;28;20061;-77
2023/10/14 08:28:59;;;;;;;5.55;3.33;;;;;;;;;;5887069;28;20051;-77
2023/10/14 08:31:53;;;;;;;5.80;2.83;;;;;;;;;;5892898;28;20114;-78
2023/10/14 08:34:45;;;;;;;5.78;3.13;;;;;;;;;;5894755;28;20098;-78
2023/10/14 08:37:35;;;;;;;9.23;3.13;;;;;;;;;;5903646;28;20053;-79
2023/10/14 08:40:29;;;;;;;18.20;2.97;;;;;;;;;;5902851;28;20045;-77
2023/10/14 08:43:22;;;;;;;6.47;3.08;;;;;;;;;;5889281;28;20056;-77
2023/10/14 08:46:13;;;;;;;2.78;1.95;;;;;;;;;;5881618;28;20055;-78
2023/10/14 08:49:08;;;;;;;6.00;2.08;;;;;;;;;;5899723;28;20055;-77
2023/10/14 08:52:02;;;;;;;5.03;2.50;;;;;;;;;;5889161;28;20072;-78
2023/10/14 08:54:53;;;;;;;4.05;1.80;;;;;;;;;;5890221;28;20415;-77
2023/10/14 08:57:45;;;;;;;4.63;2.70;;;;;;;;;;5888093;28;20051;-77
2023/10/14 09:00:36;;;;;;;4.05;2.20;;;;;;;;;;5887703;28;20472;-78
2023/10/14 09:03:27;;;;;;;2.47;1.67;;;;;;;;;;5905534;28;20048;-77
2023/10/14 09:06:19;;;;;;;8.05;3.38;;;;;;;;;;5887754;28;20040;-78
2023/10/14 09:09:17;;;;;;;6.10;2.08;;;;;;;;;;5888859;28;20427;-77
2023/10/14 09:12:13;;;;;;;6.70;2.83;;;;;;;;;;5905839;28;20056;-78
2023/10/14 09:15:04;;;;;;;4.18;2.45;;;;;;;;;;5905020;28;20054;-77
2023/10/14 09:17:56;;;;;;;4.35;2.45;;;;;;;;;;5906627;28;20817;-78
2023/10/14 09:20:56;;;;;;;4.93;1.95;;;;;;;;;;5887333;28;20614;-78
2023/10/14 09:23:47;;;;;;;6.55;3.15;;;;;;;;;;5905888;28;20109;-78
2023/10/14 09:26:43;;;;;;;15.27;2.08;;;;;;;;;;5906283;28;20498;-79
2023/10/14 09:29:36;;;;;;;2.85;2.10;;;;;;;;;;5887821;28;20136;-78
2023/10/14 09:32:27;;;;;;;8.60;2.90;;;;;;;;;;5906001;28;20059;-78
2023/10/14 09:35:20;;;;;;;11.45;2.20;;;;;;;;;;5906021;28;20051;-78
2023/10/14 09:38:14;;;;;;;5.07;2.38;;;;;;;;;;5887929;28;20151;-79
2023/10/14 09:41:10;;;;;;;6.68;3.60;;;;;;;;;;5905279;28;20102;-80
2023/10/14 09:44:03;;;;;;;2.92;2.05;;;;;;;;;;5906308;28;20127;-78
2023/10/14 09:46:54;;;;;;;4.32;1.67;;;;;;;;;;5873102;28;20037;-76
2023/10/14 09:49:47;;;;;;;7.07;2.13;;;;;;;;;;5902658;28;20129;-77
2023/10/14 09:52:42;;;;;;;3.95;2.22;;;;;;;;;;5888408;28;20040;-77
2023/10/14 09:55:33;;;;;;;3.25;2.08;;;;;;;;;;5878516;28;20395;-79
2023/10/14 09:58:30;;;;;;;3.63;2.25;;;;;;;;;;5883310;28;20067;-78
2023/10/14 10:01:24;;;;;;;5.65;2.53;;;;;;;;;;5880945;28;20078;-78
2023/10/14 10:04:21;;;;;;;5.78;2.53;;;;;;;;;;5883717;28;20041;-78
2023/10/14 10:07:33;;;;;;;10.33;2.87;;;;;;;;;;5882522;28;20048;-78
2023/10/14 10:10:30;;;;;;;4.32;2.72;;;;;;;;;;5882317;28;20053;-78
2023/10/14 10:13:23;;;;;;;3.33;2.60;;;;;;;;;;5893759;28;20055;-77
2023/10/14 10:16:20;;;;;;;2.08;1.63;;;;;;;;;;5884336;28;20100;-78
2023/10/14 10:19:11;;;;;;;7.00;2.00;;;;;;;;;;5897353;28;20048;-78
2023/10/14 10:22:16;;;;;;;4.35;2.53;;;;;;;;;;5900702;28;20105;-78
2023/10/14 10:25:14;;;;;;;10.80;2.53;;;;;;;;;;5883090;28;20824;-79
2023/10/14 10:28:43;;;;;;;14.95;2.83;;;;;;;;;;5880149;28;20067;-78
2023/10/14 10:31:34;;;;;;;20.92;2.10;;;;;;;;;;5794238;28;20050;-79
2023/10/14 10:34:25;;;;;;;8.82;2.92;;;;;;;;;;5898838;28;20052;-78
2023/10/14 10:37:19;;;;;;;6.22;2.38;;;;;;;;;;5894861;28;20515;-79
2023/10/14 10:40:11;;;;;;;7.25;2.10;;;;;;;;;;5882839;28;20400;-78
2023/10/14 10:43:06;;;;;;;10.55;1.75;;;;;;;;;;5887544;28;20048;-80
2023/10/14 10:45:57;;;;;;;5.00;1.90;;;;;;;;;;5905241;28;20055;-77
2023/10/14 10:48:49;;;;;;;4.50;2.13;;;;;;;;;;5889883;28;20619;-79
2023/10/14 10:52:08;;;;;;;8.10;2.33;;;;;;;;;;5886232;28;20064;-79
2023/10/14 10:54:59;;;;;;;6.60;2.10;;;;;;;;;;5905422;28;20178;-78
2023/10/14 10:58:00;;;;;;;7.50;2.67;;;;;;;;;;5879927;28;20480;-78
2023/10/14 11:00:51;;;;;;;3.28;1.67;;;;;;;;;;5881649;28;20037;-77
2023/10/14 11:03:45;;;;;;;8.98;2.58;;;;;;;;;;5896253;28;20064;-79
2023/10/14 11:06:36;;;;;;;5.95;1.55;;;;;;;;;;5899912;28;20565;-78
2023/10/14 11:09:31;;;;;;;13.57;2.47;;;;;;;;;;5881092;28;20113;-78
2023/10/14 11:12:22;;;;;;;8.23;1.95;;;;;;;;;;5889231;28;20049;-78
2023/10/14 11:15:23;;;;;;;6.43;1.83;;;;;;;;;;5905632;28;20502;-77
2023/10/14 11:18:14;;;;;;;23.58;2.25;;;;;;;;;;5882552;28;20057;-78
2023/10/14 11:21:27;;;;;;;4.07;2.30;;;;;;;;;;5900449;28;20044;-77
2023/10/14 11:24:18;;;;;;;2.47;1.73;;;;;;;;;;5887414;28;20127;-78
2023/10/14 11:27:10;;;;;;;12.90;2.72;;;;;;;;;;5885004;28;20057;-77
2023/10/14 11:30:01;;;;;;;3.30;1.90;;;;;;;;;;5885348;28;20052;-78
2023/10/14 11:32:52;;;;;;;4.82;2.10;;;;;;;;;;5888245;28;20041;-77
2023/10/14 11:35:42;;;;;;;1.73;1.40;;;;;;;;;;5868738;28;20045;-79
2023/10/14 11:38:43;;;;;;;5.57;2.38;;;;;;;;;;5900495;28;20052;-77
2023/10/14 11:41:33;;;;;;;2.15;1.48;;;;;;;;;;5897349;28;20056;-78
2023/10/14 11:44:24;;;;;;;29.20;2.50;;;;;;;;;;5885646;28;20048;-78
2023/10/14 11:47:16;;;;;;;4.75;2.20;;;;;;;;;;5906765;28;20048;-78
2023/10/14 11:50:12;;;;;;;7.00;2.13;;;;;;;;;;5902335;28;20057;-77
2023/10/14 11:53:05;;;;;;;4.53;2.35;;;;;;;;;;5880902;28;20592;-77
2023/10/14 11:55:58;;;;;;;10.32;2.45;;;;;;;;;;5903915;28;20063;-78
2023/10/14 11:58:49;;;;;;;6.38;2.20;;;;;;;;;;5896186;28;20179;-78
2023/10/14 12:01:45;;;;;;;5.07;1.90;;;;;;;;;;6293517;22;20045;-65
2023/10/14 12:04:36;;;;;;;5.78;2.38;;;;;;;;;;5881486;28;20049;-65
2023/10/14 12:10:36;;;;;;;4.43;2.58;;;;;;;;;;5951980;23;20046;-62
2023/10/14 12:13:27;;;;;;;2.80;2.28;;;;;;;;;;5817613;28;20054;-62
2023/10/14 12:16:36;;;;;;;4.15;2.30;;;;;;;;;;5819861;28;20061;-62
2023/10/14 12:19:27;;;;;;;3.13;1.58;;;;;;;;;;5819236;28;20070;-62
2023/10/14 12:22:19;;;;;;;6.32;2.75;;;;;;;;;;5819055;28;20054;-62
2023/10/14 12:25:11;;;;;;;4.38;2.00;;;;;;;;;;5828500;28;20050;-63
2023/10/14 12:28:03;;;;;;;2.20;1.73;;;;;;;;;;5829685;28;20130;-63
2023/10/14 12:31:06;;;;;;;7.63;1.70;;;;;;;;;;5812377;28;20050;-62
2023/10/14 12:34:01;;;;;;;5.18;2.22;;;;;;;;;;5843581;28;20053;-62
2023/10/14 12:36:52;;;;;;;3.90;1.77;;;;;;;;;;5808478;28;20046;-62
2023/10/14 12:40:11;;;;;;;2.28;1.95;;;;;;;;;;5832872;28;20057;-62
2023/10/14 12:43:03;;;;;;;6.15;2.72;;;;;;;;;;5840785;28;20054;-65
2023/10/14 12:46:09;;;;;;;3.80;2.35;;;;;;;;;;5834413;28;20056;-65
2023/10/14 12:49:02;;;;;;;6.75;2.10;;;;;;;;;;5833579;28;20117;-64
2023/10/14 12:52:01;;;;;;;3.33;1.45;;;;;;;;;;5834186;28;20065;-64
2023/10/14 12:54:52;;;;;;;3.53;2.05;;;;;;;;;;5832439;28;20053;-64
2023/10/14 12:57:44;;;;;;;4.90;2.60;;;;;;;;;;5838899;28;20052;-64
2023/10/14 13:00:35;;;;;;;5.10;2.00;;;;;;;;;;5841067;28;20046;-64
2023/10/14 13:03:26;;;;;;;3.53;1.63;;;;;;;;;;5840048;28;20133;-64
2023/10/14 13:06:22;;;;;;;3.88;1.83;;;;;;;;;;5839238;28;20385;-64
2023/10/14 13:09:14;;;;;;;2.88;1.95;;;;;;;;;;5831208;28;20138;-64
2023/10/14 13:12:15;;;;;;;4.57;2.78;;;;;;;;;;5818061;28;20116;-64
2023/10/14 13:15:07;;;;;;;2.83;1.67;;;;;;;;;;5818128;28;20056;-65
2023/10/14 13:18:05;;;;;;;3.50;2.28;;;;;;;;;;5818123;28;20050;-64
2023/10/14 13:20:58;;;;;;;2.72;2.03;;;;;;;;;;5817880;28;20122;-64
2023/10/14 13:23:49;;;;;;;3.05;2.10;;;;;;;;;;5817841;28;20054;-64
2023/10/14 13:26:40;;;;;;;4.63;2.45;;;;;;;;;;5800336;28;20054;-64
2023/10/14 13:29:31;;;;;;;7.07;2.38;;;;;;;;;;5817715;28;20050;-63
2023/10/14 13:32:24;;;;;;;1.92;1.73;;;;;;;;;;5817684;28;20058;-64
2023/10/14 13:35:16;;;;;;;7.57;1.77;;;;;;;;;;5817274;28;20053;-64
2023/10/14 13:38:10;;;;;;;4.90;2.20;;;;;;;;;;5817212;28;20444;-64
2023/10/14 13:41:03;;;;;;;7.63;2.63;;;;;;;;;;5817528;28;20859;-63
2023/10/14 13:43:54;;;;;;;10.13;2.58;;;;;;;;;;5817833;28;20057;-64
2023/10/14 13:46:44;;;;;;;2.25;1.90;;;;;;;;;;5817081;28;20061;-63
2023/10/14 13:49:36;;;;;;;20.52;1.98;;;;;;;;;;5817229;28;20189;-63
2023/10/14 13:52:27;;;;;;;13.82;3.90;;;;;;;;;;5817211;28;20496;-64
2023/10/14 13:55:18;;;;;;;4.15;2.42;;;;;;;;;;5817252;28;20057;-64
2023/10/14 13:58:12;;;;;;;5.65;2.45;;;;;;;;;;5816934;28;20046;-64
2023/10/14 14:01:08;;;;;;;2.80;1.95;;;;;;;;;;5817078;28;20058;-64
2023/10/14 14:04:00;;;;;;;8.05;2.22;;;;;;;;;;5817536;28;20109;-65
2023/10/14 14:06:52;;;;;;;25.35;2.67;;;;;;;;;;5800113;28;20046;-64
2023/10/14 14:09:45;;;;;;;4.20;2.17;;;;;;;;;;5830066;28;20136;-63
2023/10/14 14:12:42;;;;;;;10.30;3.25;;;;;;;;;;5839692;28;20486;-64
2023/10/14 14:15:33;;;;;;;3.30;2.65;;;;;;;;;;5839821;28;20049;-63
2023/10/14 14:18:24;;;;;;;1.90;1.60;;;;;;;;;;5839540;28;20057;-64
2023/10/14 14:21:18;;;;;;;4.88;3.00;;;;;;;;;;5846291;28;20050;-64
2023/10/14 14:24:08;;;;;;;9.23;2.13;;;;;;;;;;5834160;28;20395;-64
2023/10/14 14:26:59;;;;;;;6.20;2.50;;;;;;;;;;5856576;28;20082;-64
2023/10/14 14:29:53;;;;;;;2.40;1.45;;;;;;;;;;5863187;28;20148;-64
2023/10/14 14:32:44;;;;;;;3.45;1.92;;;;;;;;;;5834615;28;20054;-64
2023/10/14 14:35:35;;;;;;;2.25;1.70;;;;;;;;;;5839132;28;20050;-64
2023/10/14 14:38:25;;;;;;;8.75;2.80;;;;;;;;;;5840053;28;20454;-64
2023/10/14 14:41:25;;;;;;;4.72;2.53;;;;;;;;;;5847686;28;20049;-64
2023/10/14 14:44:16;;;;;;;6.25;2.75;;;;;;;;;;5856434;28;20132;-64
2023/10/14 14:47:08;;;;;;;8.73;3.05;;;;;;;;;;5841862;28;20050;-64
2023/10/14 14:50:02;;;;;;;4.97;3.35;;;;;;;;;;5842609;28;20074;-64
2023/10/14 14:52:57;;;;;;;11.25;2.88;;;;;;;;;;5862790;28;20071;-64
2023/10/14 14:55:48;;;;;;;6.00;2.00;;;;;;;;;;5845951;28;20056;-63
2023/10/14 14:58:38;;;;;;;2.55;1.70;;;;;;;;;;5841804;28;20060;-64
2023/10/14 15:01:31;;;;;;;11.55;2.83;;;;;;;;;;5849506;28;20061;-63
2023/10/14 15:04:22;;;;;;;5.15;2.95;;;;;;;;;;5864315;28;20059;-63
2023/10/14 15:07:13;;;;;;;4.10;2.15;;;;;;;;;;5865239;28;20049;-64
2023/10/14 15:10:05;;;;;;;3.75;2.10;;;;;;;;;;5865361;28;20068;-63
2023/10/14 15:12:56;;;;;;;5.20;2.45;;;;;;;;;;5866120;28;20053;-65
2023/10/14 15:15:49;;;;;;;8.90;3.13;;;;;;;;;;5841933;28;20514;-64
2023/10/14 15:18:41;;;;;;;2.75;2.17;;;;;;;;;;5842205;28;20042;-69
2023/10/14 15:21:32;;;;;;;8.20;2.60;;;;;;;;;;5843725;28;20049;-65
2023/10/14 15:24:22;;;;;;;6.40;2.40;;;;;;;;;;5840892;28;20046;-64
2023/10/14 15:27:14;;;;;;;3.78;1.80;;;;;;;;;;5843627;28;20077;-65
2023/10/14 15:30:11;;;;;;;3.60;2.17;;;;;;;;;;5843579;28;20141;-66
2023/10/14 15:33:09;;;;;;;8.35;2.63;;;;;;;;;;5842096;28;20053;-65
2023/10/14 15:36:11;;;;;;;9.98;3.65;;;;;;;;;;5841777;28;20067;-66
2023/10/14 15:39:05;;;;;;;10.73;5.03;;;;;;;;;;5842843;28;20041;-65
2023/10/14 15:41:58;;;;;;;7.15;3.03;;;;;;;;;;5843833;28;20050;-65
2023/10/14 15:44:53;;;;;;;4.07;2.65;;;;;;;;;;5841420;28;20060;-65
2023/10/14 15:47:46;;;;;;;4.20;2.00;;;;;;;;;;5843122;28;20057;-64
2023/10/14 15:50:43;;;;;;;3.05;1.98;;;;;;;;;;5842531;28;20062;-66
2023/10/14 15:53:35;;;;;;;6.68;3.03;;;;;;;;;;5843393;28;20501;-65
2023/10/14 15:56:26;;;;;;;2.80;1.60;;;;;;;;;;5843164;28;20050;-66
2023/10/14 15:59:17;;;;;;;4.65;3.00;;;;;;;;;;5842569;28;20046;-66
2023/10/14 16:02:07;;;;;;;2.40;1.80;;;;;;;;;;5842785;28;20053;-65
2023/10/14 16:04:58;;;;;;;2.75;2.15;;;;;;;;;;5854318;28;20135;-66
2023/10/14 16:07:59;;;;;;;4.05;2.15;;;;;;;;;;5866152;28;20458;-65
2023/10/14 16:10:51;;;;;;;3.45;2.10;;;;;;;;;;5846331;28;20069;-66
2023/10/14 16:13:41;;;;;;;2.55;1.60;;;;;;;;;;5842480;28;20053;-65
2023/10/14 16:16:33;;;;;;;4.85;1.88;;;;;;;;;;5865857;28;20476;-65
2023/10/14 16:19:24;;;;;;;11.13;4.03;;;;;;;;;;5856388;28;20049;-66
2023/10/14 16:22:15;;;;;;;9.98;4.70;;;;;;;;;;5842553;28;20049;-66
2023/10/14 16:25:07;;;;;;;14.82;4.82;;;;;;;;;;5853003;28;20053;-66
2023/10/14 16:28:01;;;;;;;8.20;4.45;;;;;;;;;;5866105;28;20422;-65
2023/10/14 16:30:52;;;;;;;7.68;1.67;;;;;;;;;;5845723;28;20124;-65
2023/10/14 16:33:43;;;;;;;1.27;0.90;;;;;;;;;;5842033;28;20049;-65
2023/10/14 16:36:33;;;;;;;4.43;1.33;;;;;;;;;;5864031;28;20053;-65
2023/10/14 16:39:25;;;;;;;1.90;1.23;;;;;;;;;;5857347;28;20054;-66
2023/10/14 16:42:19;;;;;;;1.75;1.60;;;;;;;;;;5841763;28;20423;-66
2023/10/14 16:45:09;;;;;;;4.35;1.98;;;;;;;;;;5841756;28;20053;-66
2023/10/14 16:48:03;;;;;;;2.72;1.50;;;;;;;;;;5842826;28;20054;-65
2023/10/14 16:50:55;;;;;;;6.25;2.22;;;;;;;;;;5841508;28;20045;-65
2023/10/14 16:53:48;;;;;;;3.20;2.10;;;;;;;;;;5841886;28;20060;-66
2023/10/14 16:56:45;;;;;;;3.30;1.25;;;;;;;;;;5862539;28;20057;-66
2023/10/14 16:59:36;;;;;;;6.38;2.80;;;;;;;;;;5855723;28;20053;-66
2023/10/14 17:02:27;;;;;;;3.30;1.48;;;;;;;;;;5841480;28;20049;-66
2023/10/14 17:05:21;;;;;;;1.45;0.85;;;;;;;;;;5849608;28;20418;-66
2023/10/14 17:08:15;;;;;;;4.75;1.25;;;;;;;;;;5841947;28;20388;-66
2023/10/14 17:11:06;;;;;;;3.30;1.23;;;;;;;;;;5834634;28;20451;-66
2023/10/14 17:13:57;;;;;;;0.40;0.30;;;;;;;;;;5834479;28;20053;-65
2023/10/14 17:16:50;;;;;;;1.75;0.52;;;;;;;;;;5820830;28;20136;-66
2023/10/14 17:19:41;;;;;;;0.50;0.43;;;;;;;;;;5812839;28;20054;-66
2023/10/14 17:22:32;;;;;;;0.40;0.40;;;;;;;;;;5839018;28;20065;-66
2023/10/14 17:25:28;;;;;;;1.00;0.85;;;;;;;;;;5848008;28;20053;-66
2023/10/14 17:28:19;;;;;;;1.27;1.13;;;;;;;;;;5846747;28;20126;-66
2023/10/14 17:31:10;;;;;;;2.03;0.93;;;;;;;;;;5841962;28;20049;-66
2023/10/14 17:34:01;;;;;;;5.35;1.23;;;;;;;;;;5844538;28;20131;-66
2023/10/14 17:36:54;;;;;;;1.88;0.98;;;;;;;;;;5841474;28;20539;-65
2023/10/14 17:39:48;;;;;;;1.35;1.15;;;;;;;;;;5839629;28;20059;-66
2023/10/14 17:42:44;;;;;;;2.70;1.27;;;;;;;;;;5841125;28;20527;-66
2023/10/14 17:45:35;;;;;;;3.63;1.98;;;;;;;;;;5848448;28;20068;-66
2023/10/14 17:48:26;;;;;;;5.35;3.55;;;;;;;;;;5862699;28;20049;-66
2023/10/14 17:51:17;;;;;;;7.90;4.43;;;;;;;;;;5840601;28;20061;-66